sensor_id;sensor_type;location;lat;lon;timestamp;noise_LAeq;noise_LA_min;noise_LA_max;noise_LA01;noise_LA95
70077;Laerm;57448;51.490;5.436;2023-05-10T10:17:51;51.25;47.61;62.11;;
70077;Laerm;57448;51.490;5.436;2023-05-10T10:19:52;54.24;40.48;67.75;;
70077;Laerm;57448;51.490;5.436;2023-05-10T10:21:54;54.33;41.84;69.77;;
70077;Laerm;57448;51.490;5.436;2023-05-10T10:23:55;55.19;41.35;70.20;;
70077;Laerm;57448;51.490;5.436;2023-05-10T10:25:56;50.09;41.38;62.98;;
70077;Laerm;57448;51.490;5.436;2023-05-10T10:28:01;50.16;42.07;63.02;;
70077;Laerm;57448;51.490;5.436;2023-05-10T10:30:07;49.79;42.80;61.22;;
70077;Laerm;57448;51.490;5.436;2023-05-10T10:32:18;49.57;42.54;58.72;;
70077;Laerm;57448;51.490;5.436;2023-05-10T10:34:25;55.39;43.50;68.16;;
70077;Laerm;57448;51.490;5.436;2023-05-10T10:36:26;54.15;43.40;69.25;;
70077;Laerm;57448;51.490;5.436;2023-05-10T10:38:35;51.88;42.47;64.52;;
70077;Laerm;57448;51.490;5.436;2023-05-10T10:40:36;51.48;41.56;61.86;;
70077;Laerm;57448;51.490;5.436;2023-05-10T10:42:44;52.01;43.04;65.17;;
70077;Laerm;57448;51.490;5.436;2023-05-10T10:44:46;54.47;44.37;70.00;;
70077;Laerm;57448;51.490;5.436;2023-05-10T10:49:24;50.27;44.67;67.70;;
70077;Laerm;57448;51.490;5.436;2023-05-10T10:51:28;54.60;43.97;69.75;;
70077;Laerm;57448;51.490;5.436;2023-05-10T10:53:29;53.41;45.35;68.68;;
70077;Laerm;57448;51.490;5.436;2023-05-10T10:55:31;52.17;44.01;64.02;;
70077;Laerm;57448;51.490;5.436;2023-05-10T10:57:33;54.49;48.35;63.85;;
70077;Laerm;57448;51.490;5.436;2023-05-10T10:59:43;51.94;43.87;62.63;;
70077;Laerm;57448;51.490;5.436;2023-05-10T11:01:44;53.93;44.60;64.59;;
70077;Laerm;57448;51.490;5.436;2023-05-10T11:04:16;53.16;45.83;69.02;;
70077;Laerm;57448;51.490;5.436;2023-05-10T11:06:19;54.65;48.86;70.50;;
70077;Laerm;57448;51.490;5.436;2023-05-10T11:08:30;51.42;44.25;62.17;;
70077;Laerm;57448;51.490;5.436;2023-05-10T11:10:31;51.07;43.91;64.09;;
70077;Laerm;57448;51.490;5.436;2023-05-10T11:12:33;52.21;43.38;65.25;;
70077;Laerm;57448;51.490;5.436;2023-05-10T11:14:34;50.60;42.88;60.47;;
70077;Laerm;57448;51.490;5.436;2023-05-10T11:16:40;49.91;42.80;60.33;;
70077;Laerm;57448;51.490;5.436;2023-05-10T11:18:56;54.69;43.00;66.78;;
70077;Laerm;57448;51.490;5.436;2023-05-10T11:20:58;50.02;42.21;60.96;;
70077;Laerm;57448;51.490;5.436;2023-05-10T11:23:11;49.73;42.45;59.65;;
70077;Laerm;57448;51.490;5.436;2023-05-10T11:25:15;50.32;44.24;61.11;;
70077;Laerm;57448;51.490;5.436;2023-05-10T11:27:16;50.60;42.82;64.28;;
70077;Laerm;57448;51.490;5.436;2023-05-10T11:29:18;49.20;42.66;59.62;;
70077;Laerm;57448;51.490;5.436;2023-05-10T11:31:20;52.83;40.61;65.81;;
70077;Laerm;57448;51.490;5.436;2023-05-10T11:33:21;52.56;40.63;66.26;;
70077;Laerm;57448;51.490;5.436;2023-05-10T11:35:22;55.81;40.01;70.13;;
70077;Laerm;57448;51.490;5.436;2023-05-10T11:37:24;49.67;40.65;63.68;;
70077;Laerm;57448;51.490;5.436;2023-05-10T11:39:27;48.86;41.12;62.38;;
70077;Laerm;57448;51.490;5.436;2023-05-10T11:41:29;49.31;41.15;61.87;;
70077;Laerm;57448;51.490;5.436;2023-05-10T11:43:30;50.41;42.34;61.23;;
70077;Laerm;57448;51.490;5.436;2023-05-10T11:45:32;53.33;43.57;66.19;;
70077;Laerm;57448;51.490;5.436;2023-05-10T11:47:33;56.94;43.77;72.55;;
70077;Laerm;57448;51.490;5.436;2023-05-10T11:49:37;58.70;45.35;74.38;;
70077;Laerm;57448;51.490;5.436;2023-05-10T11:51:38;54.57;45.06;68.04;;
70077;Laerm;57448;51.490;5.436;2023-05-10T11:53:40;53.86;46.50;69.10;;
70077;Laerm;57448;51.490;5.436;2023-05-10T11:55:42;63.19;49.75;74.15;;
70077;Laerm;57448;51.490;5.436;2023-05-10T11:57:44;60.70;54.88;72.67;;
70077;Laerm;57448;51.490;5.436;2023-05-10T11:59:46;56.37;52.30;63.60;;
70077;Laerm;57448;51.490;5.436;2023-05-10T12:01:47;56.26;53.17;60.38;;
70077;Laerm;57448;51.490;5.436;2023-05-10T12:03:49;56.39;53.37;66.02;;
70077;Laerm;57448;51.490;5.436;2023-05-10T12:05:51;55.36;51.13;68.49;;
70077;Laerm;57448;51.490;5.436;2023-05-10T12:07:52;55.17;51.32;67.48;;
70077;Laerm;57448;51.490;5.436;2023-05-10T12:10:03;57.74;52.11;69.44;;
70077;Laerm;57448;51.490;5.436;2023-05-10T12:12:06;56.14;51.82;67.27;;
70077;Laerm;57448;51.490;5.436;2023-05-10T12:14:08;55.94;51.40;68.85;;
70077;Laerm;57448;51.490;5.436;2023-05-10T12:16:13;54.60;50.34;63.46;;
70077;Laerm;57448;51.490;5.436;2023-05-10T12:18:15;57.09;48.82;70.15;;
70077;Laerm;57448;51.490;5.436;2023-05-10T12:20:24;53.56;48.53;65.07;;
70077;Laerm;57448;51.490;5.436;2023-05-10T12:22:29;56.37;49.22;68.19;;
70077;Laerm;57448;51.490;5.436;2023-05-10T12:24:33;54.10;49.12;66.78;;
70077;Laerm;57448;51.490;5.436;2023-05-10T12:26:34;54.84;49.72;63.29;;
70077;Laerm;57448;51.490;5.436;2023-05-10T12:28:37;53.31;48.87;63.11;;
70077;Laerm;57448;51.490;5.436;2023-05-10T12:30:39;56.45;49.55;65.54;;
70077;Laerm;57448;51.490;5.436;2023-05-10T12:32:41;51.59;48.43;58.23;;
70077;Laerm;57448;51.490;5.436;2023-05-10T12:34:42;51.86;48.72;58.37;;
70077;Laerm;57448;51.490;5.436;2023-05-10T12:36:44;54.08;50.21;72.72;;
70077;Laerm;57448;51.490;5.436;2023-05-10T12:38:45;52.38;48.70;59.46;;
70077;Laerm;57448;51.490;5.436;2023-05-10T12:40:48;51.69;47.58;60.16;;
70077;Laerm;57448;51.490;5.436;2023-05-10T12:42:49;51.85;48.67;60.13;;
70077;Laerm;57448;51.490;5.436;2023-05-10T12:44:55;52.12;48.36;62.75;;
70077;Laerm;57448;51.490;5.436;2023-05-10T12:46:57;52.05;47.73;62.18;;
70077;Laerm;57448;51.490;5.436;2023-05-10T12:48:58;52.21;47.81;61.18;;
70077;Laerm;57448;51.490;5.436;2023-05-10T12:50:59;51.73;47.28;64.84;;
70077;Laerm;57448;51.490;5.436;2023-05-10T12:53:01;51.32;46.94;61.04;;
70077;Laerm;57448;51.490;5.436;2023-05-10T12:55:02;51.87;46.57;61.17;;
70077;Laerm;57448;51.490;5.436;2023-05-10T12:57:04;52.41;47.49;62.58;;
70077;Laerm;57448;51.490;5.436;2023-05-10T12:59:05;54.80;48.31;71.94;;
70077;Laerm;57448;51.490;5.436;2023-05-10T13:01:08;52.66;48.87;65.54;;
70077;Laerm;57448;51.490;5.436;2023-05-10T13:03:10;52.65;48.42;60.28;;
70077;Laerm;57448;51.490;5.436;2023-05-10T13:05:11;51.50;47.53;59.49;;
70077;Laerm;57448;51.490;5.436;2023-05-10T13:07:13;51.58;47.43;60.42;;
70077;Laerm;57448;51.490;5.436;2023-05-10T13:09:14;51.01;46.62;62.35;;
70077;Laerm;57448;51.490;5.436;2023-05-10T13:11:16;51.13;46.05;64.46;;
70077;Laerm;57448;51.490;5.436;2023-05-10T13:13:17;60.81;47.47;73.83;;
70077;Laerm;57448;51.490;5.436;2023-05-10T13:15:18;51.83;47.11;62.15;;
70077;Laerm;57448;51.490;5.436;2023-05-10T13:17:21;51.76;46.45;63.65;;
70077;Laerm;57448;51.490;5.436;2023-05-10T13:19:23;50.40;45.55;60.73;;
70077;Laerm;57448;51.490;5.436;2023-05-10T13:21:24;50.72;45.66;62.04;;
70077;Laerm;57448;51.490;5.436;2023-05-10T13:23:25;51.47;45.86;62.53;;
70077;Laerm;57448;51.490;5.436;2023-05-10T13:25:27;52.12;46.33;65.43;;
70077;Laerm;57448;51.490;5.436;2023-05-10T13:27:28;52.63;46.11;63.60;;
70077;Laerm;57448;51.490;5.436;2023-05-10T13:29:29;49.88;45.85;64.74;;
70077;Laerm;57448;51.490;5.436;2023-05-10T13:31:31;49.83;45.50;61.23;;
70077;Laerm;57448;51.490;5.436;2023-05-10T13:33:33;51.28;46.76;60.36;;
70077;Laerm;57448;51.490;5.436;2023-05-10T13:35:35;55.46;46.23;67.60;;
70077;Laerm;57448;51.490;5.436;2023-05-10T13:37:36;50.25;46.15;62.00;;
70077;Laerm;57448;51.490;5.436;2023-05-10T13:39:37;54.93;47.12;70.47;;
70077;Laerm;57448;51.490;5.436;2023-05-10T13:41:39;51.01;46.17;62.92;;
70077;Laerm;57448;51.490;5.436;2023-05-10T13:43:40;52.14;46.86;63.50;;
70077;Laerm;57448;51.490;5.436;2023-05-10T13:45:42;55.11;47.10;66.96;;
70077;Laerm;57448;51.490;5.436;2023-05-10T13:47:43;52.91;47.60;61.98;;
70077;Laerm;57448;51.490;5.436;2023-05-10T13:49:46;52.68;47.91;64.32;;
70077;Laerm;57448;51.490;5.436;2023-05-10T13:51:47;51.48;47.40;60.82;;
70077;Laerm;57448;51.490;5.436;2023-05-10T13:53:49;56.02;48.63;68.54;;
70077;Laerm;57448;51.490;5.436;2023-05-10T13:55:50;54.89;50.90;63.21;;
70077;Laerm;57448;51.490;5.436;2023-05-10T13:57:51;58.94;54.04;64.81;;
70077;Laerm;57448;51.490;5.436;2023-05-10T13:59:53;58.98;55.75;65.92;;
70077;Laerm;57448;51.490;5.436;2023-05-10T14:01:54;57.09;54.12;64.00;;
70077;Laerm;57448;51.490;5.436;2023-05-10T14:03:55;58.01;53.78;63.14;;
70077;Laerm;57448;51.490;5.436;2023-05-10T14:05:58;58.63;54.47;67.30;;
70077;Laerm;57448;51.490;5.436;2023-05-10T14:08:00;56.48;53.63;64.44;;
70077;Laerm;57448;51.490;5.436;2023-05-10T14:10:01;57.31;53.56;65.38;;
70077;Laerm;57448;51.490;5.436;2023-05-10T14:12:02;55.20;51.72;63.99;;
70077;Laerm;57448;51.490;5.436;2023-05-10T14:14:04;56.75;51.72;67.56;;
70077;Laerm;57448;51.490;5.436;2023-05-10T14:16:05;53.64;50.25;62.29;;
70077;Laerm;57448;51.490;5.436;2023-05-10T14:18:07;53.26;50.27;60.34;;
70077;Laerm;57448;51.490;5.436;2023-05-10T14:20:08;53.41;50.40;64.59;;
70077;Laerm;57448;51.490;5.436;2023-05-10T14:22:11;52.11;49.52;56.24;;
70077;Laerm;57448;51.490;5.436;2023-05-10T14:24:12;52.97;49.99;59.01;;
70077;Laerm;57448;51.490;5.436;2023-05-10T14:26:14;52.89;49.69;56.97;;
70077;Laerm;57448;51.490;5.436;2023-05-10T14:28:15;52.42;48.83;64.17;;
70077;Laerm;57448;51.490;5.436;2023-05-10T14:30:17;52.25;48.62;62.56;;
70077;Laerm;57448;51.490;5.436;2023-05-10T14:32:18;52.00;47.65;62.22;;
70077;Laerm;57448;51.490;5.436;2023-05-10T14:34:19;52.33;49.02;65.87;;
70077;Laerm;57448;51.490;5.436;2023-05-10T14:36:21;51.84;48.91;63.59;;
70077;Laerm;57448;51.490;5.436;2023-05-10T14:38:23;53.19;49.21;61.06;;
70077;Laerm;57448;51.490;5.436;2023-05-10T14:40:25;53.47;50.39;61.59;;
70077;Laerm;57448;51.490;5.436;2023-05-10T14:42:26;54.79;52.10;64.37;;
70077;Laerm;57448;51.490;5.436;2023-05-10T14:44:28;55.80;50.73;65.86;;
70077;Laerm;57448;51.490;5.436;2023-05-10T14:46:29;51.99;48.92;59.59;;
70077;Laerm;57448;51.490;5.436;2023-05-10T14:48:30;51.34;49.09;57.88;;
70077;Laerm;57448;51.490;5.436;2023-05-10T14:50:32;51.45;48.48;59.33;;
70077;Laerm;57448;51.490;5.436;2023-05-10T14:52:33;51.29;47.80;58.04;;
70077;Laerm;57448;51.490;5.436;2023-05-10T14:54:36;52.53;47.78;60.77;;
70077;Laerm;57448;51.490;5.436;2023-05-10T14:56:37;52.52;49.76;61.00;;
70077;Laerm;57448;51.490;5.436;2023-05-10T14:58:38;53.68;49.09;68.64;;
70077;Laerm;57448;51.490;5.436;2023-05-10T15:00:40;55.79;48.89;74.86;;
70077;Laerm;57448;51.490;5.436;2023-05-10T15:02:41;54.47;49.11;70.71;;
70077;Laerm;57448;51.490;5.436;2023-05-10T15:04:43;52.63;46.85;67.68;;
70077;Laerm;57448;51.490;5.436;2023-05-10T15:06:44;54.98;46.54;65.83;;
70077;Laerm;57448;51.490;5.436;2023-05-10T15:08:45;51.34;46.46;61.16;;
70077;Laerm;57448;51.490;5.436;2023-05-10T15:10:48;50.65;45.59;59.41;;
70077;Laerm;57448;51.490;5.436;2023-05-10T15:12:49;56.29;47.17;66.27;;
70077;Laerm;57448;51.490;5.436;2023-05-10T15:14:51;53.30;47.65;71.56;;
70077;Laerm;57448;51.490;5.436;2023-05-10T15:16:52;54.42;48.04;72.28;;
70077;Laerm;57448;51.490;5.436;2023-05-10T15:18:53;53.02;47.26;67.78;;
70077;Laerm;57448;51.490;5.436;2023-05-10T15:20:55;52.73;47.63;64.84;;
70077;Laerm;57448;51.490;5.436;2023-05-10T15:22:58;51.95;47.29;63.24;;
70077;Laerm;57448;51.490;5.436;2023-05-10T15:24:59;54.12;46.26;69.12;;
70077;Laerm;57448;51.490;5.436;2023-05-10T15:27:03;52.33;45.76;63.23;;
70077;Laerm;57448;51.490;5.436;2023-05-10T15:29:04;49.65;45.47;63.09;;
70077;Laerm;57448;51.490;5.436;2023-05-10T15:31:05;50.35;45.42;62.47;;
70077;Laerm;57448;51.490;5.436;2023-05-10T15:33:07;50.29;43.36;61.84;;
70077;Laerm;57448;51.490;5.436;2023-05-10T15:35:08;48.65;42.80;61.03;;
70077;Laerm;57448;51.490;5.436;2023-05-10T15:37:10;46.50;42.50;57.37;;
70077;Laerm;57448;51.490;5.436;2023-05-10T15:39:11;48.25;41.76;60.61;;
70077;Laerm;57448;51.490;5.436;2023-05-10T15:41:13;49.08;40.92;61.05;;
70077;Laerm;57448;51.490;5.436;2023-05-10T15:43:15;47.21;41.10;61.27;;
70077;Laerm;57448;51.490;5.436;2023-05-10T15:45:17;46.72;40.55;57.42;;
70077;Laerm;57448;51.490;5.436;2023-05-10T15:47:18;48.78;41.85;64.06;;
70077;Laerm;57448;51.490;5.436;2023-05-10T15:49:20;52.14;44.24;69.57;;
70077;Laerm;57448;51.490;5.436;2023-05-10T15:51:21;52.30;43.59;69.71;;
70077;Laerm;57448;51.490;5.436;2023-05-10T15:53:22;54.98;44.68;65.31;;
70077;Laerm;57448;51.490;5.436;2023-05-10T15:55:24;54.30;46.82;64.29;;
70077;Laerm;57448;51.490;5.436;2023-05-10T15:57:26;55.18;46.38;69.72;;
70077;Laerm;57448;51.490;5.436;2023-05-10T15:59:29;51.28;45.96;64.54;;
70077;Laerm;57448;51.490;5.436;2023-05-10T16:01:30;54.85;46.13;65.17;;
70077;Laerm;57448;51.490;5.436;2023-05-10T16:03:32;51.33;46.25;59.91;;
70077;Laerm;57448;51.490;5.436;2023-05-10T16:05:33;56.18;48.09;66.14;;
70077;Laerm;57448;51.490;5.436;2023-05-10T16:07:34;52.30;48.09;71.24;;
70077;Laerm;57448;51.490;5.436;2023-05-10T16:09:36;53.01;49.46;62.68;;
70077;Laerm;57448;51.490;5.436;2023-05-10T16:11:37;52.19;49.15;63.32;;
70077;Laerm;57448;51.490;5.436;2023-05-10T16:13:38;52.91;49.10;62.54;;
70077;Laerm;57448;51.490;5.436;2023-05-10T16:15:41;53.35;50.19;61.20;;
70077;Laerm;57448;51.490;5.436;2023-05-10T16:17:43;53.57;50.38;63.66;;
70077;Laerm;57448;51.490;5.436;2023-05-10T16:19:44;53.24;50.18;60.79;;
70077;Laerm;57448;51.490;5.436;2023-05-10T16:21:46;52.74;50.48;61.11;;
70077;Laerm;57448;51.490;5.436;2023-05-10T16:23:47;52.01;48.58;60.28;;
70077;Laerm;57448;51.490;5.436;2023-05-10T16:25:49;52.10;48.56;64.85;;
70077;Laerm;57448;51.490;5.436;2023-05-10T16:27:50;51.85;48.64;61.64;;
70077;Laerm;57448;51.490;5.436;2023-05-10T16:29:51;52.82;48.90;63.34;;
70077;Laerm;57448;51.490;5.436;2023-05-10T16:31:54;54.81;50.92;62.71;;
70077;Laerm;57448;51.490;5.436;2023-05-10T16:33:55;54.09;49.88;60.69;;
70077;Laerm;57448;51.490;5.436;2023-05-10T16:35:56;54.62;51.73;60.57;;
70077;Laerm;57448;51.490;5.436;2023-05-10T16:37:58;53.29;49.64;67.47;;
70077;Laerm;57448;51.490;5.436;2023-05-10T16:39:59;52.35;48.91;60.81;;
70077;Laerm;57448;51.490;5.436;2023-05-10T16:42:00;51.02;47.84;60.42;;
70077;Laerm;57448;51.490;5.436;2023-05-10T16:44:02;50.97;46.94;60.41;;
70077;Laerm;57448;51.490;5.436;2023-05-10T16:46:08;51.78;46.54;64.61;;
70077;Laerm;57448;51.490;5.436;2023-05-10T16:48:11;51.40;46.92;67.60;;
70077;Laerm;57448;51.490;5.436;2023-05-10T16:50:12;55.72;47.11;69.93;;
70077;Laerm;57448;51.490;5.436;2023-05-10T16:52:14;53.37;50.44;61.88;;
70077;Laerm;57448;51.490;5.436;2023-05-10T16:54:16;52.23;48.15;65.37;;
70077;Laerm;57448;51.490;5.436;2023-05-10T16:56:17;51.18;46.86;61.89;;
70077;Laerm;57448;51.490;5.436;2023-05-10T16:58:20;53.21;44.63;71.72;;
70077;Laerm;57448;51.490;5.436;2023-05-10T17:00:22;56.37;44.01;73.22;;
70077;Laerm;57448;51.490;5.436;2023-05-10T17:02:23;56.95;44.06;69.66;;
70077;Laerm;57448;51.490;5.436;2023-05-10T17:04:26;50.46;44.39;61.68;;
70077;Laerm;57448;51.490;5.436;2023-05-10T17:06:27;51.36;44.73;62.93;;
70077;Laerm;57448;51.490;5.436;2023-05-10T17:08:28;51.67;44.27;66.22;;
70077;Laerm;57448;51.490;5.436;2023-05-10T17:10:30;51.95;43.49;63.00;;
70077;Laerm;57448;51.490;5.436;2023-05-10T17:12:31;50.93;43.40;61.76;;
70077;Laerm;57448;51.490;5.436;2023-05-10T17:14:33;51.52;42.76;63.69;;
70077;Laerm;57448;51.490;5.436;2023-05-10T17:16:34;54.74;42.94;64.21;;
70077;Laerm;57448;51.490;5.436;2023-05-10T17:18:35;49.65;42.20;62.70;;
70077;Laerm;57448;51.490;5.436;2023-05-10T17:20:38;50.54;42.24;63.01;;
70077;Laerm;57448;51.490;5.436;2023-05-10T17:22:40;50.20;41.60;64.68;;
70077;Laerm;57448;51.490;5.436;2023-05-10T17:24:41;48.10;41.83;66.04;;
70077;Laerm;57448;51.490;5.436;2023-05-10T17:26:43;49.24;40.22;63.05;;
70077;Laerm;57448;51.490;5.436;2023-05-10T17:28:44;51.40;39.52;67.26;;
70077;Laerm;57448;51.490;5.436;2023-05-10T17:30:45;50.38;38.70;68.13;;
70077;Laerm;57448;51.490;5.436;2023-05-10T17:32:47;50.71;38.90;63.73;;
70077;Laerm;57448;51.490;5.436;2023-05-10T17:34:48;50.90;39.66;66.79;;
70077;Laerm;57448;51.490;5.436;2023-05-10T17:36:51;52.69;40.07;68.52;;
70077;Laerm;57448;51.490;5.436;2023-05-10T17:38:52;48.58;39.92;63.10;;
70077;Laerm;57448;51.490;5.436;2023-05-10T17:40:54;55.00;39.82;67.97;;
70077;Laerm;57448;51.490;5.436;2023-05-10T17:42:55;45.49;38.27;63.22;;
70077;Laerm;57448;51.490;5.436;2023-05-10T17:44:57;47.20;38.36;61.77;;
70077;Laerm;57448;51.490;5.436;2023-05-10T17:46:58;48.47;38.23;67.31;;
70077;Laerm;57448;51.490;5.436;2023-05-10T17:49:00;49.57;37.90;63.01;;
70077;Laerm;57448;51.490;5.436;2023-05-10T17:51:01;47.57;38.12;62.16;;
70077;Laerm;57448;51.490;5.436;2023-05-10T17:53:04;51.65;38.27;67.28;;
70077;Laerm;57448;51.490;5.436;2023-05-10T17:55:05;49.63;39.41;66.88;;
70077;Laerm;57448;51.490;5.436;2023-05-10T17:57:07;54.58;38.68;67.36;;
70077;Laerm;57448;51.490;5.436;2023-05-10T17:59:08;47.20;37.46;62.22;;
70077;Laerm;57448;51.490;5.436;2023-05-10T18:01:10;49.33;37.27;63.65;;
70077;Laerm;57448;51.490;5.436;2023-05-10T18:03:11;47.57;37.26;62.17;;
70077;Laerm;57448;51.490;5.436;2023-05-10T18:05:12;48.16;37.54;62.59;;
70077;Laerm;57448;51.490;5.436;2023-05-10T18:07:14;53.76;37.11;66.25;;
70077;Laerm;57448;51.490;5.436;2023-05-10T18:09:16;46.70;37.18;62.93;;
70077;Laerm;57448;51.490;5.436;2023-05-10T18:11:20;55.62;37.84;68.31;;
70077;Laerm;57448;51.490;5.436;2023-05-10T18:13:21;50.22;37.45;64.71;;
70077;Laerm;57448;51.490;5.436;2023-05-10T18:15:23;50.83;37.52;67.71;;
70077;Laerm;57448;51.490;5.436;2023-05-10T18:17:24;47.63;36.55;64.19;;
70077;Laerm;57448;51.490;5.436;2023-05-10T18:19:26;47.82;36.73;64.02;;
70077;Laerm;57448;51.490;5.436;2023-05-10T18:21:27;45.63;36.89;63.99;;
70077;Laerm;57448;51.490;5.436;2023-05-10T18:23:28;54.37;37.33;69.01;;
70077;Laerm;57448;51.490;5.436;2023-05-10T18:25:31;43.34;36.61;55.46;;
70077;Laerm;57448;51.490;5.436;2023-05-10T18:27:32;43.39;36.15;57.36;;
70077;Laerm;57448;51.490;5.436;2023-05-10T18:29:34;44.85;35.35;59.02;;
70077;Laerm;57448;51.490;5.436;2023-05-10T18:31:35;46.25;34.83;61.63;;
70077;Laerm;57448;51.490;5.436;2023-05-10T18:33:37;46.35;35.51;61.85;;
70077;Laerm;57448;51.490;5.436;2023-05-10T18:35:38;46.83;34.95;63.42;;
70077;Laerm;57448;51.490;5.436;2023-05-10T18:37:40;45.91;34.65;61.76;;
70077;Laerm;57448;51.490;5.436;2023-05-10T18:39:42;45.73;34.40;60.64;;
70077;Laerm;57448;51.490;5.436;2023-05-10T18:41:44;45.77;34.97;62.18;;
70077;Laerm;57448;51.490;5.436;2023-05-10T18:43:46;45.28;34.97;61.63;;
70077;Laerm;57448;51.490;5.436;2023-05-10T18:45:47;44.91;36.49;61.83;;
70077;Laerm;57448;51.490;5.436;2023-05-10T18:47:49;43.80;35.09;58.84;;
70077;Laerm;57448;51.490;5.436;2023-05-10T18:49:51;44.93;36.14;55.48;;
70077;Laerm;57448;51.490;5.436;2023-05-10T18:51:52;48.21;35.91;65.84;;
70077;Laerm;57448;51.490;5.436;2023-05-10T18:53:54;57.45;37.04;70.85;;
70077;Laerm;57448;51.490;5.436;2023-05-10T18:55:55;44.90;36.17;55.60;;
70077;Laerm;57448;51.490;5.436;2023-05-10T18:57:59;44.10;36.85;56.82;;
70077;Laerm;57448;51.490;5.436;2023-05-10T19:00:00;44.60;36.68;59.28;;
70077;Laerm;57448;51.490;5.436;2023-05-10T19:02:01;42.75;36.43;55.11;;
70077;Laerm;57448;51.490;5.436;2023-05-10T19:04:03;42.94;36.71;58.79;;
70077;Laerm;57448;51.490;5.436;2023-05-10T19:06:04;41.76;37.12;53.56;;
70077;Laerm;57448;51.490;5.436;2023-05-10T19:08:05;44.54;36.72;58.76;;
70077;Laerm;57448;51.490;5.436;2023-05-10T19:10:07;44.49;38.88;57.61;;
70077;Laerm;57448;51.490;5.436;2023-05-10T19:12:08;44.86;39.45;57.90;;
70077;Laerm;57448;51.490;5.436;2023-05-10T19:14:11;45.19;39.38;59.27;;
70077;Laerm;57448;51.490;5.436;2023-05-10T19:16:13;44.37;38.60;57.13;;
70077;Laerm;57448;51.490;5.436;2023-05-10T19:18:15;46.52;38.99;67.54;;
70077;Laerm;57448;51.490;5.436;2023-05-10T19:20:16;46.00;38.37;56.84;;
70077;Laerm;57448;51.490;5.436;2023-05-10T19:22:18;49.35;38.07;74.58;;
70077;Laerm;57448;51.490;5.436;2023-05-10T19:24:19;45.09;37.50;57.72;;
70077;Laerm;57448;51.490;5.436;2023-05-10T19:26:22;44.80;36.68;65.34;;
70077;Laerm;57448;51.490;5.436;2023-05-10T19:28:23;43.47;36.98;55.38;;
70077;Laerm;57448;51.490;5.436;2023-05-10T19:30:26;42.61;36.88;56.17;;
70077;Laerm;57448;51.490;5.436;2023-05-10T19:32:28;55.23;39.20;77.20;;
70077;Laerm;57448;51.490;5.436;2023-05-10T19:34:29;44.17;39.23;56.41;;
70077;Laerm;57448;51.490;5.436;2023-05-10T19:36:30;43.86;39.02;56.38;;
70077;Laerm;57448;51.490;5.436;2023-05-10T19:38:32;47.67;39.41;63.33;;
70077;Laerm;57448;51.490;5.436;2023-05-10T19:40:33;48.55;41.15;64.19;;
70077;Laerm;57448;51.490;5.436;2023-05-10T19:42:35;49.44;41.06;65.09;;
70077;Laerm;57448;51.490;5.436;2023-05-10T19:44:36;47.40;41.06;58.46;;
70077;Laerm;57448;51.490;5.436;2023-05-10T19:46:39;54.13;41.90;64.64;;
70077;Laerm;57448;51.490;5.436;2023-05-10T19:48:40;44.23;40.54;54.32;;
70077;Laerm;57448;51.490;5.436;2023-05-10T19:50:42;45.57;42.74;51.44;;
70077;Laerm;57448;51.490;5.436;2023-05-10T19:52:43;47.32;43.40;57.53;;
70077;Laerm;57448;51.490;5.436;2023-05-10T19:54:45;47.91;44.55;59.15;;
70077;Laerm;57448;51.490;5.436;2023-05-10T19:56:46;47.24;43.38;58.30;;
70077;Laerm;57448;51.490;5.436;2023-05-10T19:58:47;45.91;41.88;56.63;;
70077;Laerm;57448;51.490;5.436;2023-05-10T20:00:48;46.05;42.32;56.36;;
70077;Laerm;57448;51.490;5.436;2023-05-10T20:02:51;53.74;41.17;63.61;;
70077;Laerm;57448;51.490;5.436;2023-05-10T20:04:53;43.75;39.99;51.83;;
70077;Laerm;57448;51.490;5.436;2023-05-10T20:06:54;42.79;39.87;52.72;;
70077;Laerm;57448;51.490;5.436;2023-05-10T20:08:55;43.44;39.63;69.42;;
70077;Laerm;57448;51.490;5.436;2023-05-10T20:10:57;56.25;40.69;67.77;;
70077;Laerm;57448;51.490;5.436;2023-05-10T20:12:59;42.68;39.61;47.29;;
70077;Laerm;57448;51.490;5.436;2023-05-10T20:15:00;41.83;38.78;50.69;;
70077;Laerm;57448;51.490;5.436;2023-05-10T20:17:02;42.08;38.21;48.15;;
70077;Laerm;57448;51.490;5.436;2023-05-10T20:19:05;43.05;39.79;53.71;;
70077;Laerm;57448;51.490;5.436;2023-05-10T20:21:06;43.59;40.26;46.91;;
70077;Laerm;57448;51.490;5.436;2023-05-10T20:23:07;44.83;41.63;50.68;;
70077;Laerm;57448;51.490;5.436;2023-05-10T20:25:09;52.10;41.65;63.68;;
70077;Laerm;57448;51.490;5.436;2023-05-10T20:27:10;43.79;40.98;48.23;;
70077;Laerm;57448;51.490;5.436;2023-05-10T20:29:12;44.53;41.50;52.56;;
70077;Laerm;57448;51.490;5.436;2023-05-10T20:31:13;53.30;41.04;64.39;;
70077;Laerm;57448;51.490;5.436;2023-05-10T20:33:14;54.39;40.84;65.59;;
70077;Laerm;57448;51.490;5.436;2023-05-10T20:35:17;42.75;38.81;49.28;;
70077;Laerm;57448;51.490;5.436;2023-05-10T20:37:18;53.43;39.41;64.75;;
70077;Laerm;57448;51.490;5.436;2023-05-10T20:39:20;42.29;39.55;47.45;;
70077;Laerm;57448;51.490;5.436;2023-05-10T20:41:21;42.10;39.51;46.98;;
70077;Laerm;57448;51.490;5.436;2023-05-10T20:43:23;42.78;39.90;46.42;;
70077;Laerm;57448;51.490;5.436;2023-05-10T20:45:25;54.44;41.63;66.09;;
70077;Laerm;57448;51.490;5.436;2023-05-10T20:47:26;43.54;39.89;49.72;;
70077;Laerm;57448;51.490;5.436;2023-05-10T20:49:27;43.26;40.02;46.90;;
70077;Laerm;57448;51.490;5.436;2023-05-10T20:51:30;42.85;39.37;47.16;;
70077;Laerm;57448;51.490;5.436;2023-05-10T20:53:32;43.64;40.07;49.43;;
70077;Laerm;57448;51.490;5.436;2023-05-10T20:55:33;43.86;40.93;49.46;;
70077;Laerm;57448;51.490;5.436;2023-05-10T20:57:35;43.54;40.39;49.49;;
70077;Laerm;57448;51.490;5.436;2023-05-10T20:59:36;44.66;40.83;68.21;;
70077;Laerm;57448;51.490;5.436;2023-05-10T21:01:37;43.40;40.10;47.98;;
70077;Laerm;57448;51.490;5.436;2023-05-10T21:03:39;43.70;39.54;47.22;;
70077;Laerm;57448;51.490;5.436;2023-05-10T21:05:40;42.53;39.16;47.54;;
70077;Laerm;57448;51.490;5.436;2023-05-10T21:07:43;42.07;38.56;47.37;;
70077;Laerm;57448;51.490;5.436;2023-05-10T21:09:44;41.01;37.89;48.50;;
70077;Laerm;57448;51.490;5.436;2023-05-10T21:11:45;40.22;37.29;51.39;;
70077;Laerm;57448;51.490;5.436;2023-05-10T21:13:47;42.74;37.97;50.62;;
70077;Laerm;57448;51.490;5.436;2023-05-10T21:15:48;41.51;37.73;50.61;;
70077;Laerm;57448;51.490;5.436;2023-05-10T21:17:49;40.62;37.83;46.44;;
70077;Laerm;57448;51.490;5.436;2023-05-10T21:19:52;40.40;37.33;44.83;;
70077;Laerm;57448;51.490;5.436;2023-05-10T21:21:54;39.99;36.75;46.13;;
70077;Laerm;57448;51.490;5.436;2023-05-10T21:23:57;41.72;38.85;46.91;;
70077;Laerm;57448;51.490;5.436;2023-05-10T21:25:59;41.28;38.49;45.93;;
70077;Laerm;57448;51.490;5.436;2023-05-10T21:28:02;42.16;38.54;48.57;;
70077;Laerm;57448;51.490;5.436;2023-05-10T21:30:03;43.78;41.49;47.12;;
70077;Laerm;57448;51.490;5.436;2023-05-10T21:32:05;44.11;41.83;49.50;;
70077;Laerm;57448;51.490;5.436;2023-05-10T21:34:06;43.82;41.58;50.24;;
70077;Laerm;57448;51.490;5.436;2023-05-10T21:36:08;46.51;43.25;57.37;;
70077;Laerm;57448;51.490;5.436;2023-05-10T21:38:09;47.30;45.31;64.55;;
70077;Laerm;57448;51.490;5.436;2023-05-10T21:40:12;47.05;44.31;53.74;;
70077;Laerm;57448;51.490;5.436;2023-05-10T21:42:13;44.57;41.42;55.78;;